sensor_id;sensor_type;location;lat;lon;timestamp;pressure;altitude;pressure_sealevel;temperature;humidity
77027;BME280;65956;52.986;17.490;2024-02-14T00:01:12;100670.96;;;1.85;100.00
77027;BME280;65956;52.986;17.490;2024-02-14T00:03:39;100671.45;;;1.83;100.00
77027;BME280;65956;52.986;17.490;2024-02-14T00:06:05;100672.65;;;1.80;100.00
77027;BME280;65956;52.986;17.490;2024-02-14T00:08:32;100670.00;;;1.77;100.00
77027;BME280;65956;52.986;17.490;2024-02-14T00:10:58;100674.41;;;1.74;100.00
77027;BME280;65956;52.986;17.490;2024-02-14T00:13:24;100671.80;;;1.70;100.00
77027;BME280;65956;52.986;17.490;2024-02-14T00:15:50;100675.05;;;1.67;100.00
77027;BME280;65956;52.986;17.490;2024-02-14T00:18:17;100670.33;;;1.64;100.00
77027;BME280;65956;52.986;17.490;2024-02-14T00:20:43;100668.48;;;1.62;100.00
77027;BME280;65956;52.986;17.490;2024-02-14T00:23:09;100670.00;;;1.64;100.00
77027;BME280;65956;52.986;17.490;2024-02-14T00:25:37;100667.47;;;1.66;100.00
77027;BME280;65956;52.986;17.490;2024-02-14T00:28:03;100668.45;;;1.70;100.00
77027;BME280;65956;52.986;17.490;2024-02-14T00:30:31;100673.85;;;1.72;100.00
77027;BME280;65956;52.986;17.490;2024-02-14T00:32:58;100674.34;;;1.75;100.00
77027;BME280;65956;52.986;17.490;2024-02-14T00:35:24;100674.38;;;1.76;100.00
77027;BME280;65956;52.986;17.490;2024-02-14T00:37:50;100676.19;;;1.76;100.00
77027;BME280;65956;52.986;17.490;2024-02-14T00:40:16;100680.09;;;1.76;100.00
77027;BME280;65956;52.986;17.490;2024-02-14T00:42:43;100679.08;;;1.74;100.00
77027;BME280;65956;52.986;17.490;2024-02-14T00:45:09;100678.72;;;1.73;100.00
77027;BME280;65956;52.986;17.490;2024-02-14T00:47:36;100679.14;;;1.71;100.00
77027;BME280;65956;52.986;17.490;2024-02-14T00:50:03;100679.43;;;1.70;100.00
77027;BME280;65956;52.986;17.490;2024-02-14T00:52:29;100679.75;;;1.68;100.00
77027;BME280;65956;52.986;17.490;2024-02-14T00:54:55;100685.23;;;1.66;100.00
77027;BME280;65956;52.986;17.490;2024-02-14T00:57:22;100691.30;;;1.62;100.00
77027;BME280;65956;52.986;17.490;2024-02-14T00:59:52;100692.05;;;1.57;100.00
77027;BME280;65956;52.986;17.490;2024-02-14T01:02:18;100688.34;;;1.53;100.00
77027;BME280;65956;52.986;17.490;2024-02-14T01:04:45;100688.70;;;1.49;100.00
77027;BME280;65956;52.986;17.490;2024-02-14T01:07:11;100690.10;;;1.44;100.00
77027;BME280;65956;52.986;17.490;2024-02-14T01:09:37;100687.29;;;1.41;100.00
77027;BME280;65956;52.986;17.490;2024-02-14T01:12:04;100688.48;;;1.37;100.00
77027;BME280;65956;52.986;17.490;2024-02-14T01:14:31;100687.95;;;1.35;100.00
77027;BME280;65956;52.986;17.490;2024-02-14T01:16:57;100691.45;;;1.33;100.00
77027;BME280;65956;52.986;17.490;2024-02-14T01:19:23;100684.49;;;1.32;100.00
77027;BME280;65956;52.986;17.490;2024-02-14T01:21:51;100683.17;;;1.32;100.00
77027;BME280;65956;52.986;17.490;2024-02-14T01:24:17;100680.46;;;1.34;100.00
77027;BME280;65956;52.986;17.490;2024-02-14T01:26:44;100679.74;;;1.34;100.00
77027;BME280;65956;52.986;17.490;2024-02-14T01:29:10;100682.23;;;1.32;100.00
77027;BME280;65956;52.986;17.490;2024-02-14T01:31:36;100681.15;;;1.31;100.00
77027;BME280;65956;52.986;17.490;2024-02-14T01:34:03;100678.99;;;1.30;100.00
77027;BME280;65956;52.986;17.490;2024-02-14T01:36:29;100679.11;;;1.29;100.00
77027;BME280;65956;52.986;17.490;2024-02-14T01:38:55;100680.22;;;1.28;100.00
77027;BME280;65956;52.986;17.490;2024-02-14T01:41:21;100679.57;;;1.28;100.00
77027;BME280;65956;52.986;17.490;2024-02-14T01:43:49;100674.67;;;1.28;100.00
77027;BME280;65956;52.986;17.490;2024-02-14T01:46:16;100677.66;;;1.26;100.00
77027;BME280;65956;52.986;17.490;2024-02-14T01:48:43;100675.97;;;1.24;100.00
77027;BME280;65956;52.986;17.490;2024-02-14T01:51:11;100676.23;;;1.21;100.00
77027;BME280;65956;52.986;17.490;2024-02-14T01:53:39;100676.09;;;1.16;100.00
77027;BME280;65956;52.986;17.490;2024-02-14T01:56:07;100677.14;;;1.10;100.00
77027;BME280;65956;52.986;17.490;2024-02-14T01:58:34;100677.84;;;1.05;100.00
77027;BME280;65956;52.986;17.490;2024-02-14T02:01:00;100678.84;;;1.01;100.00
77027;BME280;65956;52.986;17.490;2024-02-14T02:03:27;100679.75;;;0.99;100.00
77027;BME280;65956;52.986;17.490;2024-02-14T02:05:53;100680.04;;;0.98;100.00
77027;BME280;65956;52.986;17.490;2024-02-14T02:08:20;100681.84;;;0.96;100.00
77027;BME280;65956;52.986;17.490;2024-02-14T02:10:47;100682.63;;;0.94;100.00
77027;BME280;65956;52.986;17.490;2024-02-14T02:13:13;100681.91;;;0.90;100.00
77027;BME280;65956;52.986;17.490;2024-02-14T02:15:41;100684.08;;;0.88;100.00
77027;BME280;65956;52.986;17.490;2024-02-14T02:18:10;100686.21;;;0.86;100.00
77027;BME280;65956;52.986;17.490;2024-02-14T02:20:37;100689.09;;;0.83;100.00
77027;BME280;65956;52.986;17.490;2024-02-14T02:23:04;100684.48;;;0.81;100.00
77027;BME280;65956;52.986;17.490;2024-02-14T02:25:31;100684.46;;;0.78;100.00
77027;BME280;65956;52.986;17.490;2024-02-14T02:27:57;100682.02;;;0.77;100.00
77027;BME280;65956;52.986;17.490;2024-02-14T02:30:23;100687.02;;;0.76;100.00
77027;BME280;65956;52.986;17.490;2024-02-14T02:32:50;100686.54;;;0.75;100.00
77027;BME280;65956;52.986;17.490;2024-02-14T02:35:17;100688.10;;;0.74;100.00
77027;BME280;65956;52.986;17.490;2024-02-14T02:37:47;100694.05;;;0.71;100.00
77027;BME280;65956;52.986;17.490;2024-02-14T02:40:17;100687.59;;;0.67;100.00
77027;BME280;65956;52.986;17.490;2024-02-14T02:42:43;100690.89;;;0.64;100.00
77027;BME280;65956;52.986;17.490;2024-02-14T02:45:11;100694.23;;;0.64;100.00
77027;BME280;65956;52.986;17.490;2024-02-14T02:47:37;100699.70;;;0.65;100.00
77027;BME280;65956;52.986;17.490;2024-02-14T02:50:04;100701.59;;;0.63;100.00
77027;BME280;65956;52.986;17.490;2024-02-14T02:52:30;100699.23;;;0.60;100.00
77027;BME280;65956;52.986;17.490;2024-02-14T02:54:59;100699.41;;;0.58;100.00
77027;BME280;65956;52.986;17.490;2024-02-14T02:57:26;100700.20;;;0.57;100.00
77027;BME280;65956;52.986;17.490;2024-02-14T02:59:53;100697.38;;;0.55;100.00
77027;BME280;65956;52.986;17.490;2024-02-14T03:02:20;100697.99;;;0.54;100.00
77027;BME280;65956;52.986;17.490;2024-02-14T03:04:46;100698.92;;;0.51;100.00
77027;BME280;65956;52.986;17.490;2024-02-14T03:07:13;100700.48;;;0.48;100.00
77027;BME280;65956;52.986;17.490;2024-02-14T03:09:39;100697.30;;;0.45;100.00
77027;BME280;65956;52.986;17.490;2024-02-14T03:12:05;100700.64;;;0.42;100.00
77027;BME280;65956;52.986;17.490;2024-02-14T03:14:32;100701.38;;;0.39;100.00
77027;BME280;65956;52.986;17.490;2024-02-14T03:17:07;100698.89;;;0.37;100.00
77027;BME280;65956;52.986;17.490;2024-02-14T03:19:35;100699.73;;;0.36;100.00
77027;BME280;65956;52.986;17.490;2024-02-14T03:22:05;100699.11;;;0.33;100.00
77027;BME280;65956;52.986;17.490;2024-02-14T03:24:35;100695.05;;;0.30;100.00
77027;BME280;65956;52.986;17.490;2024-02-14T03:27:04;100694.05;;;0.27;100.00
77027;BME280;65956;52.986;17.490;2024-02-14T03:29:31;100701.20;;;0.22;100.00
77027;BME280;65956;52.986;17.490;2024-02-14T03:31:58;100702.52;;;0.20;100.00
77027;BME280;65956;52.986;17.490;2024-02-14T03:34:27;100701.55;;;0.18;100.00
77027;BME280;65956;52.986;17.490;2024-02-14T03:36:56;100706.73;;;0.17;100.00
77027;BME280;65956;52.986;17.490;2024-02-14T03:39:22;100704.17;;;0.15;100.00
77027;BME280;65956;52.986;17.490;2024-02-14T03:41:48;100700.45;;;0.14;100.00
77027;BME280;65956;52.986;17.490;2024-02-14T03:44:15;100703.47;;;0.15;100.00
77027;BME280;65956;52.986;17.490;2024-02-14T03:46:41;100700.33;;;0.17;100.00
77027;BME280;65956;52.986;17.490;2024-02-14T03:49:07;100701.45;;;0.18;100.00
77027;BME280;65956;52.986;17.490;2024-02-14T03:51:33;100702.48;;;0.20;100.00
77027;BME280;65956;52.986;17.490;2024-02-14T03:53:59;100705.98;;;0.21;100.00
77027;BME280;65956;52.986;17.490;2024-02-14T03:56:25;100709.89;;;0.22;100.00
77027;BME280;65956;52.986;17.490;2024-02-14T03:58:52;100707.08;;;0.23;100.00
77027;BME280;65956;52.986;17.490;2024-02-14T04:01:18;100709.20;;;0.25;100.00
77027;BME280;65956;52.986;17.490;2024-02-14T04:03:46;100711.13;;;0.24;100.00
77027;BME280;65956;52.986;17.490;2024-02-14T04:06:14;100718.25;;;0.24;100.00
77027;BME280;65956;52.986;17.490;2024-02-14T04:08:40;100714.23;;;0.23;100.00
77027;BME280;65956;52.986;17.490;2024-02-14T04:11:06;100718.26;;;0.20;100.00
77027;BME280;65956;52.986;17.490;2024-02-14T04:13:32;100719.26;;;0.18;100.00
77027;BME280;65956;52.986;17.490;2024-02-14T04:15:59;100720.02;;;0.16;100.00
77027;BME280;65956;52.986;17.490;2024-02-14T04:18:25;100719.90;;;0.16;100.00
77027;BME280;65956;52.986;17.490;2024-02-14T04:20:51;100717.34;;;0.14;100.00
77027;BME280;65956;52.986;17.490;2024-02-14T04:23:17;100717.16;;;0.11;100.00
77027;BME280;65956;52.986;17.490;2024-02-14T04:25:43;100713.95;;;0.09;100.00
77027;BME280;65956;52.986;17.490;2024-02-14T04:28:09;100714.04;;;0.07;100.00
77027;BME280;65956;52.986;17.490;2024-02-14T04:30:37;100715.27;;;0.04;100.00
77027;BME280;65956;52.986;17.490;2024-02-14T04:33:04;100709.13;;;0.00;100.00
77027;BME280;65956;52.986;17.490;2024-02-14T04:35:31;100712.08;;;-0.04;100.00
77027;BME280;65956;52.986;17.490;2024-02-14T04:37:57;100711.36;;;-0.08;100.00
77027;BME280;65956;52.986;17.490;2024-02-14T04:40:23;100710.64;;;-0.11;100.00
77027;BME280;65956;52.986;17.490;2024-02-14T04:42:49;100711.77;;;-0.14;100.00
77027;BME280;65956;52.986;17.490;2024-02-14T04:45:16;100713.73;;;-0.14;100.00
77027;BME280;65956;52.986;17.490;2024-02-14T04:47:42;100718.66;;;-0.14;100.00
77027;BME280;65956;52.986;17.490;2024-02-14T04:50:09;100720.71;;;-0.13;100.00
77027;BME280;65956;52.986;17.490;2024-02-14T04:52:41;100721.12;;;-0.14;100.00
77027;BME280;65956;52.986;17.490;2024-02-14T04:55:14;100722.52;;;-0.16;100.00
77027;BME280;65956;52.986;17.490;2024-02-14T04:57:40;100714.84;;;-0.20;100.00
77027;BME280;65956;52.986;17.490;2024-02-14T05:00:07;100720.20;;;-0.24;100.00
77027;BME280;65956;52.986;17.490;2024-02-14T05:02:35;100718.79;;;-0.30;100.00
77027;BME280;65956;52.986;17.490;2024-02-14T05:05:02;100715.89;;;-0.36;100.00
77027;BME280;65956;52.986;17.490;2024-02-14T10:21:33;100697.82;;;7.08;91.58
77027;BME280;65956;52.986;17.490;2024-02-14T10:24:00;100701.88;;;7.24;89.26
77027;BME280;65956;52.986;17.490;2024-02-14T10:26:26;100701.33;;;7.28;85.85
77027;BME280;65956;52.986;17.490;2024-02-14T10:28:53;100695.02;;;7.29;84.64
77027;BME280;65956;52.986;17.490;2024-02-14T10:31:24;100691.02;;;7.26;83.49
77027;BME280;65956;52.986;17.490;2024-02-14T10:33:52;100691.07;;;7.25;83.95
77027;BME280;65956;52.986;17.490;2024-02-14T10:36:22;100689.73;;;7.19;83.27
77027;BME280;65956;52.986;17.490;2024-02-14T10:38:50;100685.02;;;7.10;82.80
77027;BME280;65956;52.986;17.490;2024-02-14T10:41:17;100685.91;;;7.12;85.55
77027;BME280;65956;52.986;17.490;2024-02-14T10:43:43;100684.94;;;7.14;85.23
77027;BME280;65956;52.986;17.490;2024-02-14T10:46:19;100679.78;;;7.09;84.27
77027;BME280;65956;52.986;17.490;2024-02-14T10:48:46;100676.23;;;7.05;84.62
77027;BME280;65956;52.986;17.490;2024-02-14T10:51:12;100676.61;;;7.02;85.38
77027;BME280;65956;52.986;17.490;2024-02-14T10:53:44;100668.00;;;7.01;85.42
77027;BME280;65956;52.986;17.490;2024-02-14T10:56:18;100663.91;;;7.00;85.18
77027;BME280;65956;52.986;17.490;2024-02-14T10:58:47;100664.04;;;6.94;84.61
77027;BME280;65956;52.986;17.490;2024-02-14T11:01:15;100656.89;;;6.94;85.02
77027;BME280;65956;52.986;17.490;2024-02-14T11:03:43;100652.81;;;6.84;82.81
77027;BME280;65956;52.986;17.490;2024-02-14T11:06:15;100656.71;;;6.78;82.35
77027;BME280;65956;52.986;17.490;2024-02-14T11:08:55;100654.40;;;6.78;82.69
77027;BME280;65956;52.986;17.490;2024-02-14T11:11:21;100650.36;;;6.78;82.20
77027;BME280;65956;52.986;17.490;2024-02-14T11:13:53;100649.98;;;6.83;82.25
77027;BME280;65956;52.986;17.490;2024-02-14T11:16:27;100651.96;;;6.96;82.35
77027;BME280;65956;52.986;17.490;2024-02-14T11:19:13;100650.65;;;7.13;82.32
77027;BME280;65956;52.986;17.490;2024-02-14T11:21:41;100644.72;;;7.25;81.86
77027;BME280;65956;52.986;17.490;2024-02-14T11:24:12;100636.96;;;7.32;80.79
77027;BME280;65956;52.986;17.490;2024-02-14T11:26:51;100635.70;;;7.30;79.34
77027;BME280;65956;52.986;17.490;2024-02-14T11:29:17;100630.66;;;7.33;80.02
77027;BME280;65956;52.986;17.490;2024-02-14T11:31:44;100628.29;;;7.33;79.91
77027;BME280;65956;52.986;17.490;2024-02-14T11:34:12;100632.53;;;7.37;81.24
77027;BME280;65956;52.986;17.490;2024-02-14T11:36:41;100630.54;;;7.38;80.38
77027;BME280;65956;52.986;17.490;2024-02-14T11:39:08;100626.62;;;7.44;81.57
77027;BME280;65956;52.986;17.490;2024-02-14T11:41:34;100625.99;;;7.56;80.79
77027;BME280;65956;52.986;17.490;2024-02-14T11:44:02;100621.68;;;7.66;80.33
77027;BME280;65956;52.986;17.490;2024-02-14T11:46:37;100625.63;;;7.87;79.81
77027;BME280;65956;52.986;17.490;2024-02-14T11:49:05;100620.73;;;8.18;77.12
77027;BME280;65956;52.986;17.490;2024-02-14T11:51:34;100620.98;;;8.50;75.70
77027;BME280;65956;52.986;17.490;2024-02-14T11:54:04;100619.60;;;8.79;74.30
77027;BME280;65956;52.986;17.490;2024-02-14T11:56:37;100617.91;;;8.64;74.00
77027;BME280;65956;52.986;17.490;2024-02-14T11:59:06;100617.55;;;8.42;76.59
77027;BME280;65956;52.986;17.490;2024-02-14T12:01:33;100620.08;;;8.34;77.84
77027;BME280;65956;52.986;17.490;2024-02-14T12:04:01;100618.62;;;8.21;76.48
77027;BME280;65956;52.986;17.490;2024-02-14T12:06:28;100615.86;;;8.11;75.46
77027;BME280;65956;52.986;17.490;2024-02-14T12:08:58;100615.84;;;8.08;75.74
77027;BME280;65956;52.986;17.490;2024-02-14T12:11:35;100613.08;;;8.13;75.90
77027;BME280;65956;52.986;17.490;2024-02-14T12:14:05;100610.89;;;8.25;76.31
77027;BME280;65956;52.986;17.490;2024-02-14T12:16:34;100607.98;;;8.38;74.72
77027;BME280;65956;52.986;17.490;2024-02-14T12:19:06;100603.02;;;8.57;74.84
77027;BME280;65956;52.986;17.490;2024-02-14T12:21:38;100600.65;;;9.22;73.13
77027;BME280;65956;52.986;17.490;2024-02-14T12:24:06;100597.06;;;9.43;70.99
77027;BME280;65956;52.986;17.490;2024-02-14T12:26:34;100594.20;;;9.37;73.91
77027;BME280;65956;52.986;17.490;2024-02-14T12:29:02;100592.98;;;9.30;74.77
77027;BME280;65956;52.986;17.490;2024-02-14T12:31:30;100589.30;;;9.23;75.72
77027;BME280;65956;52.986;17.490;2024-02-14T12:33:59;100584.57;;;9.06;75.86
77027;BME280;65956;52.986;17.490;2024-02-14T12:36:34;100582.19;;;8.87;76.46
77027;BME280;65956;52.986;17.490;2024-02-14T12:39:01;100580.77;;;8.62;75.36
77027;BME280;65956;52.986;17.490;2024-02-14T12:41:31;100578.56;;;8.41;76.57
77027;BME280;65956;52.986;17.490;2024-02-14T12:44:00;100577.26;;;8.32;77.85
77027;BME280;65956;52.986;17.490;2024-02-14T12:46:26;100581.05;;;8.25;77.35
77027;BME280;65956;52.986;17.490;2024-02-14T12:48:54;100584.24;;;8.20;78.16
77027;BME280;65956;52.986;17.490;2024-02-14T12:51:20;100586.17;;;8.18;79.19
77027;BME280;65956;52.986;17.490;2024-02-14T12:53:46;100584.31;;;8.14;79.02
77027;BME280;65956;52.986;17.490;2024-02-14T12:56:12;100584.24;;;8.07;79.91
77027;BME280;65956;52.986;17.490;2024-02-14T12:58:39;100584.44;;;8.03;80.82
77027;BME280;65956;52.986;17.490;2024-02-14T13:01:05;100583.14;;;8.00;81.31
77027;BME280;65956;52.986;17.490;2024-02-14T13:03:32;100579.25;;;7.94;81.70
77027;BME280;65956;52.986;17.490;2024-02-14T13:05:59;100580.65;;;7.87;81.94
77027;BME280;65956;52.986;17.490;2024-02-14T13:08:26;100574.80;;;7.77;82.34
77027;BME280;65956;52.986;17.490;2024-02-14T13:10:52;100576.98;;;7.66;82.36
77027;BME280;65956;52.986;17.490;2024-02-14T13:13:19;100581.48;;;7.59;82.82
77027;BME280;65956;52.986;17.490;2024-02-14T13:15:45;100585.92;;;7.52;83.12
77027;BME280;65956;52.986;17.490;2024-02-14T13:18:11;100585.59;;;7.44;83.31
77027;BME280;65956;52.986;17.490;2024-02-14T13:20:37;100589.09;;;7.33;83.44
77027;BME280;65956;52.986;17.490;2024-02-14T13:23:04;100593.25;;;7.22;84.54
77027;BME280;65956;52.986;17.490;2024-02-14T13:25:31;100592.08;;;7.09;85.65
77027;BME280;65956;52.986;17.490;2024-02-14T13:27:57;100595.18;;;6.97;86.48
77027;BME280;65956;52.986;17.490;2024-02-14T13:30:24;100602.42;;;6.82;87.15
77027;BME280;65956;52.986;17.490;2024-02-14T13:32:50;100600.80;;;6.73;87.66
77027;BME280;65956;52.986;17.490;2024-02-14T13:35:17;100606.45;;;6.67;88.61
77027;BME280;65956;52.986;17.490;2024-02-14T13:37:43;100605.42;;;6.57;88.84
77027;BME280;65956;52.986;17.490;2024-02-14T13:40:11;100601.00;;;6.49;89.46
77027;BME280;65956;52.986;17.490;2024-02-14T13:42:37;100602.12;;;6.43;89.79
77027;BME280;65956;52.986;17.490;2024-02-14T13:45:07;100602.77;;;6.40;90.56
77027;BME280;65956;52.986;17.490;2024-02-14T13:47:38;100600.08;;;6.37;91.26
77027;BME280;65956;52.986;17.490;2024-02-14T13:50:09;100599.19;;;6.32;91.50
77027;BME280;65956;52.986;17.490;2024-02-14T13:52:36;100597.21;;;6.28;92.05
77027;BME280;65956;52.986;17.490;2024-02-14T13:55:02;100597.67;;;6.22;92.83
77027;BME280;65956;52.986;17.490;2024-02-14T13:57:33;100598.84;;;6.17;93.12
77027;BME280;65956;52.986;17.490;2024-02-14T13:59:59;100600.20;;;6.14;93.59
77027;BME280;65956;52.986;17.490;2024-02-14T14:02:25;100601.70;;;6.10;93.84
77027;BME280;65956;52.986;17.490;2024-02-14T14:04:52;100603.19;;;6.05;94.46
77027;BME280;65956;52.986;17.490;2024-02-14T14:07:19;100603.30;;;6.02;95.12
77027;BME280;65956;52.986;17.490;2024-02-14T14:09:45;100605.13;;;5.98;95.73
77027;BME280;65956;52.986;17.490;2024-02-14T14:12:13;100602.15;;;5.93;95.95
77027;BME280;65956;52.986;17.490;2024-02-14T14:14:39;100603.80;;;5.87;96.66
77027;BME280;65956;52.986;17.490;2024-02-14T14:17:05;100603.43;;;5.81;96.89
77027;BME280;65956;52.986;17.490;2024-02-14T14:19:31;100601.20;;;5.77;97.05
77027;BME280;65956;52.986;17.490;2024-02-14T14:21:57;100600.36;;;5.71;97.70
77027;BME280;65956;52.986;17.490;2024-02-14T14:24:23;100600.94;;;5.66;97.78
77027;BME280;65956;52.986;17.490;2024-02-14T14:26:49;100597.61;;;5.60;98.40
77027;BME280;65956;52.986;17.490;2024-02-14T14:29:18;100597.86;;;5.55;98.55
77027;BME280;65956;52.986;17.490;2024-02-14T14:31:44;100590.77;;;5.49;99.00
77027;BME280;65956;52.986;17.490;2024-02-14T14:34:10;100587.77;;;5.45;99.49
77027;BME280;65956;52.986;17.490;2024-02-14T14:36:54;100587.96;;;5.41;99.96
77027;BME280;65956;52.986;17.490;2024-02-14T14:39:20;100580.05;;;5.37;99.98
77027;BME280;65956;52.986;17.490;2024-02-14T14:41:46;100579.31;;;5.34;100.00
77027;BME280;65956;52.986;17.490;2024-02-14T14:44:12;100578.36;;;5.30;100.00
77027;BME280;65956;52.986;17.490;2024-02-14T14:46:38;100580.61;;;5.27;100.00
77027;BME280;65956;52.986;17.490;2024-02-14T14:49:09;100580.61;;;5.24;100.00
77027;BME280;65956;52.986;17.490;2024-02-14T14:51:35;100581.16;;;5.20;100.00
77027;BME280;65956;52.986;17.490;2024-02-14T14:57:12;100585.66;;;5.14;100.00
77027;BME280;65956;52.986;17.490;2024-02-14T14:59:41;100582.84;;;5.11;100.00
77027;BME280;65956;52.986;17.490;2024-02-14T15:02:09;100580.23;;;5.10;100.00
77027;BME280;65956;52.986;17.490;2024-02-14T15:04:35;100576.84;;;5.08;100.00
77027;BME280;65956;52.986;17.490;2024-02-14T15:07:03;100576.29;;;5.06;100.00
77027;BME280;65956;52.986;17.490;2024-02-14T15:09:30;100576.95;;;5.05;100.00
77027;BME280;65956;52.986;17.490;2024-02-14T15:12:31;100576.07;;;5.01;100.00
77027;BME280;65956;52.986;17.490;2024-02-14T15:15:02;100580.19;;;5.01;100.00
77027;BME280;65956;52.986;17.490;2024-02-14T15:17:28;100580.30;;;5.00;100.00
77027;BME280;65956;52.986;17.490;2024-02-14T15:19:56;100578.64;;;5.00;100.00
77027;BME280;65956;52.986;17.490;2024-02-14T15:22:24;100579.98;;;4.98;100.00
77027;BME280;65956;52.986;17.490;2024-02-14T15:24:51;100579.73;;;4.97;100.00
77027;BME280;65956;52.986;17.490;2024-02-14T15:27:18;100579.95;;;4.95;100.00
77027;BME280;65956;52.986;17.490;2024-02-14T15:29:50;100583.63;;;4.95;100.00
77027;BME280;65956;52.986;17.490;2024-02-14T15:32:39;100583.62;;;4.93;100.00
77027;BME280;65956;52.986;17.490;2024-02-14T15:35:23;100588.53;;;4.92;100.00
77027;BME280;65956;52.986;17.490;2024-02-14T15:37:50;100589.23;;;4.92;100.00
77027;BME280;65956;52.986;17.490;2024-02-14T15:40:18;100593.66;;;4.92;100.00
77027;BME280;65956;52.986;17.490;2024-02-14T15:42:44;100594.05;;;4.92;100.00
77027;BME280;65956;52.986;17.490;2024-02-14T15:45:11;100596.52;;;4.92;100.00
77027;BME280;65956;52.986;17.490;2024-02-14T15:47:44;100593.56;;;4.93;100.00
77027;BME280;65956;52.986;17.490;2024-02-14T15:50:11;100598.27;;;4.93;100.00
77027;BME280;65956;52.986;17.490;2024-02-14T15:52:38;100597.66;;;4.93;100.00
77027;BME280;65956;52.986;17.490;2024-02-14T15:55:05;100599.34;;;4.92;100.00
77027;BME280;65956;52.986;17.490;2024-02-14T15:57:34;100598.75;;;4.91;100.00
77027;BME280;65956;52.986;17.490;2024-02-14T16:00:04;100595.23;;;4.88;100.00
77027;BME280;65956;52.986;17.490;2024-02-14T16:02:34;100597.41;;;4.89;100.00
77027;BME280;65956;52.986;17.490;2024-02-14T16:05:01;100595.67;;;4.88;100.00
77027;BME280;65956;52.986;17.490;2024-02-14T16:07:29;100599.98;;;4.86;100.00
77027;BME280;65956;52.986;17.490;2024-02-14T16:09:55;100604.95;;;4.85;100.00
77027;BME280;65956;52.986;17.490;2024-02-14T16:12:21;100603.59;;;4.83;100.00
77027;BME280;65956;52.986;17.490;2024-02-14T16:14:47;100604.44;;;4.82;100.00
77027;BME280;65956;52.986;17.490;2024-02-14T16:17:14;100605.94;;;4.82;100.00
77027;BME280;65956;52.986;17.490;2024-02-14T16:19:40;100604.90;;;4.82;100.00
77027;BME280;65956;52.986;17.490;2024-02-14T16:22:06;100602.81;;;4.81;100.00
77027;BME280;65956;52.986;17.490;2024-02-14T16:24:33;100602.16;;;4.80;100.00
77027;BME280;65956;52.986;17.490;2024-02-14T16:27:00;100604.83;;;4.80;100.00
77027;BME280;65956;52.986;17.490;2024-02-14T16:29:29;100601.96;;;4.80;100.00
77027;BME280;65956;52.986;17.490;2024-02-14T16:31:58;100602.58;;;4.80;100.00
77027;BME280;65956;52.986;17.490;2024-02-14T16:34:24;100603.59;;;4.79;100.00
77027;BME280;65956;52.986;17.490;2024-02-14T16:36:51;100605.30;;;4.79;100.00
77027;BME280;65956;52.986;17.490;2024-02-14T16:39:17;100601.70;;;4.79;100.00
77027;BME280;65956;52.986;17.490;2024-02-14T16:41:43;100602.20;;;4.80;100.00
77027;BME280;65956;52.986;17.490;2024-02-14T16:44:09;100603.10;;;4.81;100.00
77027;BME280;65956;52.986;17.490;2024-02-14T16:46:35;100602.66;;;4.81;100.00
77027;BME280;65956;52.986;17.490;2024-02-14T16:49:01;100604.52;;;4.82;100.00
77027;BME280;65956;52.986;17.490;2024-02-14T16:51:29;100600.23;;;4.83;100.00
77027;BME280;65956;52.986;17.490;2024-02-14T16:53:55;100604.44;;;4.84;100.00
77027;BME280;65956;52.986;17.490;2024-02-14T16:56:21;100604.66;;;4.85;100.00
77027;BME280;65956;52.986;17.490;2024-02-14T16:58:47;100602.52;;;4.85;100.00
77027;BME280;65956;52.986;17.490;2024-02-14T17:01:13;100606.06;;;4.86;100.00
77027;BME280;65956;52.986;17.490;2024-02-14T17:03:39;100605.96;;;4.86;100.00
77027;BME280;65956;52.986;17.490;2024-02-14T17:06:05;100602.33;;;4.86;100.00
77027;BME280;65956;52.986;17.490;2024-02-14T17:08:33;100603.65;;;4.86;100.00
77027;BME280;65956;52.986;17.490;2024-02-14T17:11:02;100607.59;;;4.85;100.00
77027;BME280;65956;52.986;17.490;2024-02-14T17:13:29;100607.75;;;4.85;100.00
77027;BME280;65956;52.986;17.490;2024-02-14T17:15:56;100611.36;;;4.87;100.00
77027;BME280;65956;52.986;17.490;2024-02-14T17:18:23;100609.40;;;4.85;100.00
77027;BME280;65956;52.986;17.490;2024-02-14T17:20:50;100606.68;;;4.86;100.00
77027;BME280;65956;52.986;17.490;2024-02-14T17:23:16;100609.31;;;4.87;100.00
77027;BME280;65956;52.986;17.490;2024-02-14T17:25:42;100604.10;;;4.87;100.00
77027;BME280;65956;52.986;17.490;2024-02-14T17:28:09;100601.80;;;4.87;100.00
77027;BME280;65956;52.986;17.490;2024-02-14T17:30:36;100606.02;;;4.87;100.00
77027;BME280;65956;52.986;17.490;2024-02-14T17:33:02;100606.02;;;4.87;100.00
77027;BME280;65956;52.986;17.490;2024-02-14T17:35:30;100608.00;;;4.88;100.00
77027;BME280;65956;52.986;17.490;2024-02-14T17:37:57;100602.89;;;4.88;100.00
77027;BME280;65956;52.986;17.490;2024-02-14T17:40:24;100600.03;;;4.88;100.00
77027;BME280;65956;52.986;17.490;2024-02-14T17:42:50;100600.86;;;4.87;100.00
77027;BME280;65956;52.986;17.490;2024-02-14T17:45:16;100603.00;;;4.85;100.00
77027;BME280;65956;52.986;17.490;2024-02-14T17:47:45;100605.79;;;4.84;100.00
77027;BME280;65956;52.986;17.490;2024-02-14T17:50:11;100607.64;;;4.83;100.00
77027;BME280;65956;52.986;17.490;2024-02-14T17:52:37;100605.80;;;4.83;100.00
77027;BME280;65956;52.986;17.490;2024-02-14T17:55:04;100603.08;;;4.82;100.00
77027;BME280;65956;52.986;17.490;2024-02-14T17:57:32;100598.52;;;4.81;100.00
77027;BME280;65956;52.986;17.490;2024-02-14T17:59:58;100601.90;;;4.80;100.00
77027;BME280;65956;52.986;17.490;2024-02-14T18:02:24;100601.28;;;4.80;100.00